Nave Celeste — VRZH4 — position and weather

sailwx.info

Track history (hours):
 
Tides and Currents Weather Stations Pressure Air Temp Water Temp Dewpoint Dewpoint Depression Visibility Wind Speed Wind Dir Waves Ship Positions

Nave Celeste

Last reported at 2016-Jan-29 12:11 UTC. Time now 2016-Feb-13 04:31 UTC.
Position N 32°00' W 117°33'.
Warning: this ship's position is 14 days out of date.

Length 333 m; draft 11.8 m.

Type: Ship. MMSI: 477974000.

Date/timePositionNaut miles runAvg speedWind from/ knotsBaromVisibWave heightAir tempDewpointWater temp
2016-Jan-29 12:11N 32°00' W 117°33'914.5
2016-Jan-29 11:33N 32°09' W 117°37'1514.7
2016-Jan-29 10:33N 32°23' W 117°42'1514.6
2016-Jan-29 09:33N 32°37' W 117°48'1514.7
2016-Jan-29 08:33N 32°50' W 117°54'1514.8
2016-Jan-29 07:33N 33°04' W 117°60'1413.6
2016-Jan-29 06:33N 33°17' W 118°05'1010.2
2016-Jan-29 05:33N 33°27' W 118°09'10 9.9
2016-Jan-29 04:33N 33°36' W 118°13'8 7.8
2016-Jan-29 03:33N 33°44' W 118°13'0 0.1
2016-Jan-29 02:28N 33°44' W 118°13'0 0.0
2016-Jan-29 01:31N 33°44' W 118°13'0 0.0
2016-Jan-29 00:28N 33°44' W 118°13'0 0.0
2016-Jan-28 23:31N 33°44' W 118°13'0 0.1
2016-Jan-28 22:31N 33°44' W 118°13'0 0.1
2016-Jan-28 21:28N 33°44' W 118°13'0 0.1
2016-Jan-28 20:31N 33°44' W 118°13'0 0.1
2016-Jan-28 19:31N 33°44' W 118°13'0 0.1
2016-Jan-28 18:34N 33°44' W 118°13'0 0.1
2016-Jan-28 17:34N 33°44' W 118°13'0 0.1
2016-Jan-28 16:33N 33°44' W 118°13'0 0.1
2016-Jan-28 15:33N 33°44' W 118°13'0 0.1
2016-Jan-28 14:33N 33°44' W 118°13'0 0.1
2016-Jan-28 13:33N 33°44' W 118°13'0 0.0
2016-Jan-28 12:33N 33°44' W 118°13'0 0.1
2016-Jan-28 11:33N 33°44' W 118°13'0 0.0
2016-Jan-28 10:26N 33°44' W 118°13'0 0.1
2016-Jan-28 09:33N 33°44' W 118°13'0 0.1
2016-Jan-28 08:33N 33°44' W 118°13'0 0.2
2016-Jan-28 07:33N 33°44' W 118°13'1 1.0
2016-Jan-28 06:33N 33°44' W 118°12'7 7.0
2016-Jan-28 05:33N 33°37' W 118°10'10 9.6
2016-Jan-28 04:33N 33°28' W 118°06'9 9.4
2016-Jan-28 03:33N 33°19' W 118°03'8 8.5
2016-Jan-28 02:33N 33°11' W 118°01'1414.2
2016-Jan-28 01:34N 32°57' W 118°04'1514.6
2016-Jan-28 00:34N 32°42' W 118°08'1514.7
2016-Jan-27 23:34N 32°28' W 118°13'1514.8
2016-Jan-27 22:33N 32°14' W 118°17'1414.5
2016-Jan-27 21:34N 32°00' W 118°22'2914.6
2016-Jan-27 19:33N 31°32' W 118°31'11 9.0
2016-Jan-27 18:20N 31°21' W 118°35'5 2.1
2016-Jan-27 16:04N 31°23' W 118°40'4 1.1
2016-Jan-27 12:29N 31°26' W 118°43'1 1.1
2016-Jan-27 11:30N 31°26' W 118°44'1 1.2
2016-Jan-27 10:19N 31°28' W 118°45'1 1.2
2016-Jan-27 09:33N 31°28' W 118°46'1 1.3
2016-Jan-27 08:33N 31°29' W 118°47'1 1.2
2016-Jan-27 07:33N 31°30' W 118°48'1 1.4
2016-Jan-27 06:33N 31°31' W 118°49'1 1.2
2016-Jan-27 05:33N 31°32' W 118°50'1 1.4
2016-Jan-27 04:33N 31°33' W 118°51'1 1.3
2016-Jan-27 03:32N 31°34' W 118°52'1 1.4
2016-Jan-27 02:33N 31°35' W 118°53'2 1.4
2016-Jan-27 01:17N 31°36' W 118°54'1 1.7
2016-Jan-27 00:33N 31°37' W 118°55'1 1.4
2016-Jan-26 23:33N 31°38' W 118°56'1 1.4
2016-Jan-26 22:31N 31°39' W 118°58'1 1.4
2016-Jan-26 21:29N 31°40' W 118°59'1 1.2
2016-Jan-26 20:33N 31°41' W 119°00'1 1.1
2016-Jan-26 19:33N 31°41' W 119°01'1 1.0
2016-Jan-26 18:33N 31°42' W 119°02'1 1.0
2016-Jan-26 17:33N 31°43' W 119°03'1 1.1
2016-Jan-26 16:33N 31°44' W 119°04'1 1.1
2016-Jan-26 15:33N 31°44' W 119°05'1 1.1
2016-Jan-26 14:33N 31°45' W 119°06'1 1.2
2016-Jan-26 13:25N 31°46' W 119°07'6 1.3
2016-Jan-26 08:29N 31°51' W 119°12'1 1.5
2016-Jan-26 07:34N 31°52' W 119°13'2 1.8
2016-Jan-26 06:33N 31°54' W 119°14'2 1.9
2016-Jan-26 05:29N 31°55' W 119°16'2 1.8
2016-Jan-26 04:32N 31°56' W 119°17'2 1.7
2016-Jan-26 03:33N 31°57' W 119°19'3 2.0
2016-Jan-26 02:09N 31°59' W 119°21'4 3.9
2016-Jan-26 01:04N 32°02' W 119°25'19 5.3
2016-Jan-25 21:28N 32°14' W 119°42'  
2016-Jan-23 10:31N 31°09' W 118°00'3 1.2
2016-Jan-23 08:13N 31°10' W 118°03'1 1.1
2016-Jan-23 07:33N 31°10' W 118°04'1 1.0
2016-Jan-23 06:33N 31°10' W 118°05'2 0.8
2016-Jan-23 04:19N 31°10' W 118°07'0 0.6
2016-Jan-23 03:33N 31°10' W 118°08'0 0.5
2016-Jan-23 02:33N 31°10' W 118°08'1 0.6
2016-Jan-23 00:32N 31°10' W 118°10'  
Track history (hours):
 
Tides and Currents Weather Stations Pressure Air Temp Water Temp Dewpoint Dewpoint Depression Visibility Wind Speed Wind Dir Waves Ship Positions

Nave Celeste

Last reported at 2016-Jan-29 12:11 UTC. Time now 2016-Feb-13 04:31 UTC.
Position N 32°00' W 117°33'.
Warning: this ship's position is 14 days out of date.

Length 333 m; draft 11.8 m.

Type: Ship. MMSI: 477974000.

Date/timePositionNaut miles runAvg speedWind from/ knotsBaromVisibWave heightAir tempDewpointWater temp
2016-Jan-29 12:11N 32°00' W 117°33'914.5
2016-Jan-29 11:33N 32°09' W 117°37'1514.7
2016-Jan-29 10:33N 32°23' W 117°42'1514.6
2016-Jan-29 09:33N 32°37' W 117°48'1514.7
2016-Jan-29 08:33N 32°50' W 117°54'1514.8
2016-Jan-29 07:33N 33°04' W 117°60'1413.6
2016-Jan-29 06:33N 33°17' W 118°05'1010.2
2016-Jan-29 05:33N 33°27' W 118°09'10 9.9
2016-Jan-29 04:33N 33°36' W 118°13'8 7.8
2016-Jan-29 03:33N 33°44' W 118°13'0 0.1
2016-Jan-29 02:28N 33°44' W 118°13'0 0.0
2016-Jan-29 01:31N 33°44' W 118°13'0 0.0
2016-Jan-29 00:28N 33°44' W 118°13'0 0.0
2016-Jan-28 23:31N 33°44' W 118°13'0 0.1
2016-Jan-28 22:31N 33°44' W 118°13'0 0.1
2016-Jan-28 21:28N 33°44' W 118°13'0 0.1
2016-Jan-28 20:31N 33°44' W 118°13'0 0.1
2016-Jan-28 19:31N 33°44' W 118°13'0 0.1
2016-Jan-28 18:34N 33°44' W 118°13'0 0.1
2016-Jan-28 17:34N 33°44' W 118°13'0 0.1
2016-Jan-28 16:33N 33°44' W 118°13'0 0.1
2016-Jan-28 15:33N 33°44' W 118°13'0 0.1
2016-Jan-28 14:33N 33°44' W 118°13'0 0.1
2016-Jan-28 13:33N 33°44' W 118°13'0 0.0
2016-Jan-28 12:33N 33°44' W 118°13'0 0.1
2016-Jan-28 11:33N 33°44' W 118°13'0 0.0
2016-Jan-28 10:26N 33°44' W 118°13'0 0.1
2016-Jan-28 09:33N 33°44' W 118°13'0 0.1
2016-Jan-28 08:33N 33°44' W 118°13'0 0.2
2016-Jan-28 07:33N 33°44' W 118°13'1 1.0
2016-Jan-28 06:33N 33°44' W 118°12'7 7.0
2016-Jan-28 05:33N 33°37' W 118°10'10 9.6
2016-Jan-28 04:33N 33°28' W 118°06'9 9.4
2016-Jan-28 03:33N 33°19' W 118°03'8 8.5
2016-Jan-28 02:33N 33°11' W 118°01'1414.2
2016-Jan-28 01:34N 32°57' W 118°04'1514.6
2016-Jan-28 00:34N 32°42' W 118°08'1514.7
2016-Jan-27 23:34N 32°28' W 118°13'1514.8
2016-Jan-27 22:33N 32°14' W 118°17'1414.5
2016-Jan-27 21:34N 32°00' W 118°22'2914.6
2016-Jan-27 19:33N 31°32' W 118°31'11 9.0
2016-Jan-27 18:20N 31°21' W 118°35'5 2.1
2016-Jan-27 16:04N 31°23' W 118°40'4 1.1
2016-Jan-27 12:29N 31°26' W 118°43'1 1.1
2016-Jan-27 11:30N 31°26' W 118°44'1 1.2
2016-Jan-27 10:19N 31°28' W 118°45'1 1.2
2016-Jan-27 09:33N 31°28' W 118°46'1 1.3
2016-Jan-27 08:33N 31°29' W 118°47'1 1.2
2016-Jan-27 07:33N 31°30' W 118°48'1 1.4
2016-Jan-27 06:33N 31°31' W 118°49'1 1.2
2016-Jan-27 05:33N 31°32' W 118°50'1 1.4
2016-Jan-27 04:33N 31°33' W 118°51'1 1.3
2016-Jan-27 03:32N 31°34' W 118°52'1 1.4
2016-Jan-27 02:33N 31°35' W 118°53'2 1.4
2016-Jan-27 01:17N 31°36' W 118°54'1 1.7
2016-Jan-27 00:33N 31°37' W 118°55'1 1.4
2016-Jan-26 23:33N 31°38' W 118°56'1 1.4
2016-Jan-26 22:31N 31°39' W 118°58'1 1.4
2016-Jan-26 21:29N 31°40' W 118°59'1 1.2
2016-Jan-26 20:33N 31°41' W 119°00'1 1.1
2016-Jan-26 19:33N 31°41' W 119°01'1 1.0
2016-Jan-26 18:33N 31°42' W 119°02'1 1.0
2016-Jan-26 17:33N 31°43' W 119°03'1 1.1
2016-Jan-26 16:33N 31°44' W 119°04'1 1.1
2016-Jan-26 15:33N 31°44' W 119°05'1 1.1
2016-Jan-26 14:33N 31°45' W 119°06'1 1.2
2016-Jan-26 13:25N 31°46' W 119°07'6 1.3
2016-Jan-26 08:29N 31°51' W 119°12'1 1.5
2016-Jan-26 07:34N 31°52' W 119°13'2 1.8
2016-Jan-26 06:33N 31°54' W 119°14'2 1.9
2016-Jan-26 05:29N 31°55' W 119°16'2 1.8
2016-Jan-26 04:32N 31°56' W 119°17'2 1.7
2016-Jan-26 03:33N 31°57' W 119°19'3 2.0
2016-Jan-26 02:09N 31°59' W 119°21'4 3.9
2016-Jan-26 01:04N 32°02' W 119°25'19 5.3
2016-Jan-25 21:28N 32°14' W 119°42'  
2016-Jan-23 10:31N 31°09' W 118°00'3 1.2
2016-Jan-23 08:13N 31°10' W 118°03'1 1.1
2016-Jan-23 07:33N 31°10' W 118°04'1 1.0
2016-Jan-23 06:33N 31°10' W 118°05'2 0.8
2016-Jan-23 04:19N 31°10' W 118°07'0 0.6
2016-Jan-23 03:33N 31°10' W 118°08'0 0.5
2016-Jan-23 02:33N 31°10' W 118°08'1 0.6
2016-Jan-23 00:32N 31°10' W 118°10'  

Dump ship's entire track history